Time;durP1;ratioP1;P1;durP2;ratioP2;P2;SDS_P1;SDS_P2;PMS_P1;PMS_P2;Temp;Humidity;BMP_temperature;BMP_pressure;BME280_temperature;BME280_humidity;BME280_pressure;Samples;Min_cycle;Max_cycle;Signal;HPM_P1;HPM_P2
2022/08/14 00:00:00;;;;;;;4.57;3.47;;;14.70;99.90;;;;;;5047733;28;20033;-32
2022/08/14 00:02:26;;;;;;;4.28;3.92;;;14.50;99.90;;;;;;5043550;28;20041;-30
2022/08/14 00:04:52;;;;;;;3.95;3.53;;;13.90;99.90;;;;;;5044315;28;20120;-31
2022/08/14 00:07:19;;;;;;;4.25;3.85;;;14.10;99.90;;;;;;5040115;28;20186;-36
2022/08/14 00:09:45;;;;;;;4.95;4.10;;;14.30;99.90;;;;;;5075347;28;20172;-34
2022/08/14 00:12:11;;;;;;;4.03;3.72;;;14.40;99.90;;;;;;5045296;28;20029;-31
2022/08/14 00:14:37;;;;;;;4.40;4.00;;;14.40;99.90;;;;;;5044085;28;20037;-35
2022/08/14 00:17:04;;;;;;;5.30;4.10;;;14.50;99.90;;;;;;5049221;28;20087;-32
2022/08/14 00:19:30;;;;;;;4.25;3.85;;;14.60;99.90;;;;;;5049187;28;20068;-36
2022/08/14 00:21:56;;;;;;;4.40;3.47;;;14.50;99.90;;;;;;5079674;28;20037;-31
2022/08/14 00:24:23;;;;;;;3.83;3.53;;;14.60;99.90;;;;;;5070001;28;20021;-31
2022/08/14 00:26:50;;;;;;;3.97;3.50;;;14.50;99.90;;;;;;5059801;28;20089;-36
2022/08/14 00:29:16;;;;;;;5.40;4.20;;;14.60;99.90;;;;;;5046661;28;20390;-31
2022/08/14 00:31:42;;;;;;;3.90;3.60;;;14.50;99.90;;;;;;5050249;28;20084;-33
2022/08/14 00:34:09;;;;;;;4.93;4.05;;;14.50;99.90;;;;;;5076451;28;20009;-33
2022/08/14 00:36:35;;;;;;;4.53;3.58;;;14.50;99.90;;;;;;5048130;28;20014;-31
2022/08/14 00:39:00;;;;;;;4.40;3.63;;;14.50;99.90;;;;;;5045603;28;20485;-30
2022/08/14 00:41:31;;;;;;;3.88;3.47;;;14.50;99.90;;;;;;5043561;28;20083;-31
2022/08/14 00:43:58;;;;;;;3.55;3.20;;;14.40;99.90;;;;;;5048557;28;20029;-31
2022/08/14 00:46:24;;;;;;;3.30;3.00;;;14.30;99.90;;;;;;5061927;28;20025;-35
2022/08/14 00:48:50;;;;;;;3.75;3.38;;;14.20;99.50;;;;;;5043879;28;20044;-31
2022/08/14 00:51:17;;;;;;;4.15;3.78;;;14.20;99.90;;;;;;5053242;28;20049;-30
2022/08/14 00:53:43;;;;;;;4.28;3.88;;;14.20;99.90;;;;;;5060115;28;20088;-31
2022/08/14 00:56:09;;;;;;;4.85;3.65;;;14.20;99.90;;;;;;5047569;28;20349;-31
2022/08/14 00:58:36;;;;;;;6.18;4.07;;;14.20;99.90;;;;;;5023666;28;20138;-33
2022/08/14 01:01:08;;;;;;;6.43;3.83;;;14.20;99.90;;;;;;5042625;28;20034;-33
2022/08/14 01:03:38;;;;;;;4.40;3.97;;;14.20;99.90;;;;;;5027752;28;20037;-33
2022/08/14 01:06:09;;;;;;;4.93;4.10;;;14.20;99.90;;;;;;5034012;28;20037;-37
2022/08/14 01:08:37;;;;;;;3.78;3.45;;;14.30;99.90;;;;;;5032560;28;20032;-32
2022/08/14 01:11:04;;;;;;;6.57;4.63;;;14.30;99.90;;;;;;5032880;28;20402;-34
2022/08/14 01:13:32;;;;;;;7.78;4.15;;;14.10;99.90;;;;;;5036727;28;20349;-36
2022/08/14 01:16:02;;;;;;;4.38;3.80;;;13.90;99.90;;;;;;5031008;28;20033;-32
2022/08/14 01:21:14;;;;;;;3.90;3.60;;;13.80;99.90;;;;;;5030312;28;20138;-33
2022/08/14 01:23:49;;;;;;;3.70;3.15;;;13.90;99.70;;;;;;5030069;28;20478;-33
2022/08/14 01:26:19;;;;;;;3.35;3.05;;;13.80;99.90;;;;;;5028846;28;20021;-32
2022/08/14 01:28:47;;;;;;;3.85;3.33;;;13.60;99.90;;;;;;5033361;28;20048;-34
2022/08/14 01:31:17;;;;;;;4.03;3.70;;;13.30;99.90;;;;;;5027711;28;20099;-36
2022/08/14 01:33:46;;;;;;;5.10;4.30;;;13.00;99.90;;;;;;5033461;28;20064;-32
2022/08/14 01:36:15;;;;;;;5.63;4.22;;;13.10;99.90;;;;;;5028277;28;20033;-33
2022/08/14 01:38:42;;;;;;;;;;;13.20;99.90;;;;;;5033875;28;20049;-35
2022/08/14 01:41:10;;;;;;;4.53;4.05;;;13.40;99.90;;;;;;5025313;28;19986;-34
2022/08/14 01:44:11;;;;;;;5.53;3.55;;;13.50;99.90;;;;;;5031611;28;20497;-32
2022/08/14 01:46:39;;;;;;;3.95;3.47;;;13.50;99.90;;;;;;5000595;28;20032;-33
2022/08/14 01:49:07;;;;;;;3.93;3.63;;;13.40;99.90;;;;;;5029264;28;20030;-36
2022/08/14 01:51:34;;;;;;;3.97;3.60;;;13.40;99.90;;;;;;5031291;28;20296;-35
2022/08/14 01:54:06;;;;;;;5.85;3.47;;;13.40;99.90;;;;;;5032044;28;20128;-33
2022/08/14 01:56:37;;;;;;;5.20;3.55;;;13.40;99.90;;;;;;5026858;28;20037;-34
2022/08/14 01:59:08;;;;;;;4.47;4.07;;;13.40;99.90;;;;;;5030696;28;20551;-33
2022/08/14 02:01:34;;;;;;;4.28;3.88;;;13.30;99.90;;;;;;5028948;28;20044;-38
2022/08/14 02:04:04;;;;;;;4.43;4.03;;;13.30;99.90;;;;;;5030845;28;20037;-35
2022/08/14 02:06:30;;;;;;;3.83;3.53;;;13.30;99.90;;;;;;5033828;28;20041;-33
2022/08/14 02:08:56;;;;;;;3.50;3.20;;;13.20;99.90;;;;;;5027787;28;20040;-32
2022/08/14 02:11:24;;;;;;;3.28;2.97;;;12.90;99.90;;;;;;5029918;28;20040;-36
2022/08/14 02:13:58;;;;;;;4.55;3.65;;;12.90;99.90;;;;;;5031186;28;21023;-32
2022/08/14 02:16:28;;;;;;;3.92;3.55;;;13.00;99.90;;;;;;5036180;28;20025;-33
2022/08/14 02:18:57;;;;;;;4.15;3.70;;;12.90;99.90;;;;;;5036395;28;20026;-32
2022/08/14 02:21:24;;;;;;;4.28;3.90;;;13.00;99.90;;;;;;5042978;28;20136;-32
2022/08/14 02:23:53;;;;;;;5.35;4.30;;;13.10;99.90;;;;;;5037913;28;20541;-32
2022/08/14 02:26:25;;;;;;;4.68;3.88;;;13.10;99.90;;;;;;5035132;28;20421;-33
2022/08/14 02:28:54;;;;;;;4.20;3.80;;;13.00;99.90;;;;;;5029191;28;20031;-32
2022/08/14 02:31:19;;;;;;;4.78;3.60;;;13.10;99.90;;;;;;5026562;28;20091;-32
2022/08/14 02:33:46;;;;;;;4.38;3.95;;;13.10;99.90;;;;;;5028321;28;20426;-34
2022/08/14 02:36:12;;;;;;;4.50;4.07;;;13.00;99.90;;;;;;5028059;28;20034;-35
2022/08/14 02:38:39;;;;;;;4.25;3.85;;;13.10;99.90;;;;;;5037346;28;20032;-33
2022/08/14 02:41:08;;;;;;;5.35;3.90;;;13.20;99.90;;;;;;5036009;28;20033;-33
2022/08/14 02:43:33;;;;;;;4.90;3.88;;;13.20;99.90;;;;;;5028918;28;20025;-35
2022/08/14 02:46:00;;;;;;;4.53;3.90;;;13.20;99.90;;;;;;5038574;28;20025;-34
2022/08/14 02:48:34;;;;;;;5.32;4.07;;;13.00;99.90;;;;;;5031754;28;20035;-33
2022/08/14 02:51:02;;;;;;;3.70;3.10;;;13.10;99.90;;;;;;5029014;28;20113;-35
2022/08/14 02:53:29;;;;;;;2.67;2.47;;;13.00;99.90;;;;;;5029145;28;20044;-32
2022/08/14 02:55:55;;;;;;;2.67;2.40;;;12.80;99.90;;;;;;5036329;28;20037;-32
2022/08/14 02:58:22;;;;;;;2.35;2.20;;;12.40;99.90;;;;;;5032323;28;20079;-33
2022/08/14 03:00:48;;;;;;;3.08;2.80;;;12.30;99.90;;;;;;5027438;28;20061;-32
2022/08/14 03:03:15;;;;;;;2.80;2.60;;;12.20;99.90;;;;;;5031036;28;20021;-33
2022/08/14 03:05:41;;;;;;;3.53;2.77;;;12.20;99.90;;;;;;5038247;28;20041;-33
2022/08/14 03:08:10;;;;;;;2.85;2.65;;;12.20;99.90;;;;;;5032492;28;20890;-36
2022/08/14 03:10:37;;;;;;;2.10;2.00;;;12.40;99.90;;;;;;5028990;28;21120;-33
2022/08/14 03:13:03;;;;;;;3.05;2.85;;;12.40;99.90;;;;;;5032232;28;20403;-33
2022/08/14 03:15:31;;;;;;;3.00;2.70;;;12.30;99.90;;;;;;5034272;28;20140;-33
2022/08/14 03:17:57;;;;;;;3.30;3.10;;;12.30;99.90;;;;;;5046786;28;20036;-33
2022/08/14 03:20:22;;;;;;;2.80;2.50;;;12.20;99.90;;;;;;5032638;28;20053;-33
2022/08/14 03:22:48;;;;;;;3.10;2.80;;;12.00;99.90;;;;;;5029174;28;20033;-33
2022/08/14 03:25:13;;;;;;;3.88;3.58;;;12.00;99.90;;;;;;5036200;28;20386;-33
2022/08/14 03:27:39;;;;;;;4.15;3.75;;;12.10;99.90;;;;;;5030469;28;20128;-35
2022/08/14 03:30:05;;;;;;;4.53;3.47;;;12.20;99.90;;;;;;5029412;28;20175;-37
2022/08/14 03:32:34;;;;;;;4.53;3.88;;;12.30;99.90;;;;;;5029161;28;20052;-33
2022/08/14 03:34:59;;;;;;;6.85;4.22;;;12.30;99.90;;;;;;5033313;28;20033;-33
2022/08/14 03:37:28;;;;;;;3.78;3.47;;;12.10;99.90;;;;;;5032918;28;20560;-33
2022/08/14 03:39:54;;;;;;;4.15;3.55;;;11.50;99.90;;;;;;5037979;28;20033;-33
2022/08/14 03:42:21;;;;;;;4.85;3.60;;;11.30;99.90;;;;;;5026917;28;20037;-32
2022/08/14 03:44:47;;;;;;;3.83;3.53;;;11.50;99.90;;;;;;5031570;28;20044;-33
2022/08/14 03:47:13;;;;;;;3.78;3.47;;;11.60;99.90;;;;;;5032896;28;20025;-34
2022/08/14 03:49:39;;;;;;;4.22;3.83;;;11.70;99.90;;;;;;5031366;28;20024;-35
2022/08/14 03:52:05;;;;;;;6.03;4.50;;;11.60;99.90;;;;;;5035317;28;20694;-33
2022/08/14 03:54:34;;;;;;;5.10;4.30;;;11.40;99.90;;;;;;5030526;28;20035;-33
2022/08/14 03:57:00;;;;;;;4.53;4.13;;;11.50;99.90;;;;;;5028772;28;20030;-34
2022/08/14 03:59:26;;;;;;;4.65;4.25;;;11.60;99.90;;;;;;5036507;28;20041;-33
2022/08/14 04:01:52;;;;;;;4.13;3.72;;;11.70;99.90;;;;;;5025388;28;20037;-34
2022/08/14 04:04:18;;;;;;;4.10;3.78;;;11.70;99.90;;;;;;5032274;28;20037;-34
2022/08/14 04:06:44;;;;;;;4.03;3.63;;;11.70;99.90;;;;;;5030244;28;20037;-33
2022/08/14 04:09:09;;;;;;;3.67;3.38;;;11.50;99.90;;;;;;5029051;28;20086;-32
2022/08/14 04:11:35;;;;;;;3.70;3.40;;;11.30;99.90;;;;;;5030732;28;20053;-33
2022/08/14 04:14:02;;;;;;;3.50;3.20;;;11.20;99.90;;;;;;5028151;28;20096;-33
2022/08/14 04:16:28;;;;;;;3.25;2.95;;;11.30;99.90;;;;;;5032860;28;20032;-34
2022/08/14 04:18:55;;;;;;;4.03;2.70;;;11.30;99.90;;;;;;5030935;28;20410;-32
2022/08/14 04:21:23;;;;;;;9.18;3.58;;;11.40;99.90;;;;;;5027297;28;20809;-32
2022/08/14 04:23:50;;;;;;;3.25;2.97;;;11.50;99.90;;;;;;5030939;28;20021;-33
2022/08/14 04:26:20;;;;;;;4.38;3.13;;;11.50;99.90;;;;;;5031675;28;20035;-32
2022/08/14 04:28:48;;;;;;;4.13;3.70;;;11.60;99.90;;;;;;5030510;28;20150;-35
2022/08/14 04:31:15;;;;;;;4.20;3.78;;;11.60;99.90;;;;;;5034362;28;20061;-33
2022/08/14 04:33:41;;;;;;;3.90;3.60;;;11.50;99.90;;;;;;5031044;28;20026;-33
2022/08/14 04:36:07;;;;;;;3.78;3.47;;;11.40;99.90;;;;;;5034777;28;20036;-33
2022/08/14 04:44:01;;;;;;;4.88;4.32;;;11.50;99.90;;;;;;5032612;28;20087;-34
2022/08/14 04:46:27;;;;;;;5.13;4.25;;;11.60;99.90;;;;;;5025678;28;20589;-33
2022/08/14 04:48:54;;;;;;;3.55;3.25;;;11.50;99.90;;;;;;5030108;28;20071;-34
2022/08/14 04:51:24;;;;;;;3.58;3.28;;;11.40;99.90;;;;;;5028912;28;20033;-37
2022/08/14 04:53:50;;;;;;;3.80;3.45;;;11.50;99.90;;;;;;5030608;28;20163;-38
2022/08/14 04:56:21;;;;;;;4.45;3.80;;;11.50;99.90;;;;;;5029952;28;20132;-35
2022/08/14 04:58:48;;;;;;;4.00;3.70;;;11.50;99.90;;;;;;5029100;28;20119;-34
2022/08/14 05:01:15;;;;;;;4.60;4.20;;;11.60;99.90;;;;;;5030280;28;20463;-34
2022/08/14 05:03:41;;;;;;;5.03;4.15;;;11.70;99.90;;;;;;5024931;28;20044;-32
2022/08/14 05:06:08;;;;;;;4.88;4.20;;;11.80;99.90;;;;;;5033231;28;20032;-33
2022/08/14 05:08:34;;;;;;;4.72;4.22;;;11.80;99.90;;;;;;5023555;28;20025;-35
2022/08/14 05:11:03;;;;;;;6.22;4.65;;;11.90;99.90;;;;;;5033709;28;20021;-32
2022/08/14 05:13:29;;;;;;;;;;;11.90;99.90;;;;;;5045933;28;20041;-33
2022/08/14 05:15:57;;;;;;;5.55;4.43;;;11.90;99.90;;;;;;5033058;28;20034;-32
2022/08/14 05:18:25;;;;;;;8.13;5.25;;;12.00;99.90;;;;;;5031222;28;20119;-33
2022/08/14 05:20:52;;;;;;;8.75;4.88;;;12.10;99.90;;;;;;5029156;28;20456;-34
2022/08/14 05:23:20;;;;;;;7.00;5.40;;;12.20;99.90;;;;;;5024383;28;20367;-32
2022/08/14 05:25:48;;;;;;;5.13;4.63;;;12.30;99.90;;;;;;5031621;28;20065;-33
2022/08/14 05:28:17;;;;;;;7.03;5.28;;;12.40;99.90;;;;;;5033908;28;20033;-37
2022/08/14 05:31:07;;;;;;;7.93;5.63;;;12.60;99.90;;;;;;5025450;28;20133;-34
2022/08/14 05:33:34;;;;;;;6.53;5.82;;;12.80;99.90;;;;;;5030766;28;20112;-34
2022/08/14 05:36:03;;;;;;;5.70;5.13;;;13.00;99.90;;;;;;5031563;28;20025;-34
2022/08/14 05:38:32;;;;;;;;;;;13.20;99.90;;;;;;5035065;28;20025;-32
2022/08/14 05:41:18;;;;;;;7.65;5.28;;;13.30;99.90;;;;;;5034104;28;19917;-35
2022/08/14 05:43:49;;;;;;;5.43;4.93;;;13.40;99.90;;;;;;5032404;28;20583;-32
2022/08/14 05:46:17;;;;;;;6.63;5.93;;;13.50;99.90;;;;;;5034283;28;20029;-32
2022/08/14 05:48:52;;;;;;;6.60;5.97;;;13.60;99.90;;;;;;5036978;28;20044;-35
2022/08/14 05:51:18;;;;;;;7.22;6.43;;;13.60;99.90;;;;;;5031210;28;20037;-32
2022/08/14 05:53:44;;;;;;;6.60;5.88;;;13.80;99.90;;;;;;5033178;28;20036;-33
2022/08/14 05:56:09;;;;;;;6.03;5.43;;;13.90;99.90;;;;;;5036034;28;20057;-34
2022/08/14 05:58:35;;;;;;;7.90;5.45;;;14.10;99.90;;;;;;5033932;28;20033;-34
2022/08/14 06:01:01;;;;;;;6.20;5.57;;;14.30;99.90;;;;;;5029990;28;20033;-36
2022/08/14 06:03:27;;;;;;;6.82;6.13;;;14.40;99.90;;;;;;5040321;28;20098;-33
2022/08/14 06:05:54;;;;;;;7.65;6.10;;;14.60;99.90;;;;;;5033537;28;20079;-37
2022/08/14 06:08:20;;;;;;;6.10;5.50;;;14.70;99.90;;;;;;5035285;28;20082;-33
2022/08/14 06:10:46;;;;;;;5.53;5.05;;;14.80;99.90;;;;;;5036959;28;20543;-34
2022/08/14 06:13:12;;;;;;;6.80;5.93;;;14.80;99.90;;;;;;5036660;28;20100;-36
2022/08/14 06:15:38;;;;;;;6.97;6.13;;;15.00;99.90;;;;;;5031263;28;20228;-35
2022/08/14 06:18:04;;;;;;;6.65;5.70;;;15.10;99.90;;;;;;5030758;28;20479;-33
2022/08/14 06:20:30;;;;;;;8.40;6.07;;;15.40;99.90;;;;;;5030068;28;20170;-33
2022/08/14 06:22:56;;;;;;;7.57;6.10;;;15.50;99.90;;;;;;5033381;28;20025;-33
2022/08/14 06:25:22;;;;;;;6.95;5.43;;;15.70;99.90;;;;;;5031049;28;20025;-33
2022/08/14 06:27:48;;;;;;;8.65;6.47;;;15.80;99.90;;;;;;5036638;28;20547;-33
2022/08/14 06:30:17;;;;;;;6.40;5.65;;;16.00;99.90;;;;;;5032845;28;20032;-33
2022/08/14 06:32:43;;;;;;;6.68;5.97;;;16.30;99.90;;;;;;5034706;28;20485;-33
2022/08/14 06:35:12;;;;;;;6.63;5.93;;;16.40;99.90;;;;;;5039237;28;20040;-34
2022/08/14 06:37:51;;;;;;;6.43;5.78;;;16.60;99.90;;;;;;5034498;28;20394;-37
2022/08/14 06:40:22;;;;;;;6.97;5.50;;;16.80;99.90;;;;;;5025398;28;20046;-33
2022/08/14 06:42:48;;;;;;;6.53;5.22;;;17.10;99.90;;;;;;5027137;28;20029;-35
2022/08/14 06:45:14;;;;;;;8.25;5.55;;;17.30;99.90;;;;;;5036859;28;20086;-35
2022/08/14 06:47:43;;;;;;;5.03;4.55;;;17.50;99.90;;;;;;5033188;28;20021;-33
2022/08/14 06:50:19;;;;;;;5.35;4.47;;;17.80;99.90;;;;;;5035918;28;20018;-32
2022/08/14 06:52:45;;;;;;;6.85;5.30;;;18.00;99.90;;;;;;5031570;28;20033;-32
2022/08/14 06:55:13;;;;;;;5.70;4.10;;;18.30;99.90;;;;;;5033860;28;20028;-34
2022/08/14 06:57:41;;;;;;;4.25;3.88;;;18.40;99.90;;;;;;5029034;28;20042;-33
2022/08/14 07:00:10;;;;;;;4.78;4.28;;;18.70;99.90;;;;;;5030005;28;20120;-35
2022/08/14 07:08:05;;;;;;;4.35;3.78;;;19.40;94.20;;;;;;5033115;28;20040;-32
2022/08/14 07:10:32;;;;;;;4.63;3.97;;;19.60;90.00;;;;;;5027146;28;20404;-36
2022/08/14 07:12:58;;;;;;;7.03;4.57;;;19.70;93.10;;;;;;5031341;28;20044;-37
2022/08/14 07:15:24;;;;;;;4.85;4.32;;;19.80;90.20;;;;;;5027588;28;20029;-35
2022/08/14 07:17:50;;;;;;;4.85;4.38;;;19.80;89.20;;;;;;5031142;28;20166;-33
2022/08/14 07:20:19;;;;;;;4.65;4.22;;;19.90;90.60;;;;;;5036368;28;20092;-34
2022/08/14 07:22:46;;;;;;;5.15;4.50;;;20.00;88.10;;;;;;5051156;28;20482;-32
2022/08/14 07:25:12;;;;;;;6.43;4.55;;;20.40;87.50;;;;;;5027750;28;20021;-33
2022/08/14 07:27:39;;;;;;;6.72;4.72;;;20.50;90.30;;;;;;5035108;28;20390;-32
2022/08/14 07:30:05;;;;;;;6.15;5.55;;;20.60;90.90;;;;;;5034276;28;20375;-35
2022/08/14 07:32:31;;;;;;;5.88;5.22;;;20.70;90.90;;;;;;5032294;28;20030;-32
2022/08/14 07:34:57;;;;;;;5.63;5.10;;;20.70;90.80;;;;;;5026153;28;20636;-32
2022/08/14 07:37:23;;;;;;;6.07;5.47;;;20.80;91.80;;;;;;5029622;28;20088;-32
2022/08/14 07:39:48;;;;;;;8.00;5.53;;;21.00;89.70;;;;;;5029339;28;20048;-32
2022/08/14 07:42:14;;;;;;;6.05;4.80;;;21.10;89.40;;;;;;5034797;28;20484;-33
2022/08/14 07:44:39;;;;;;;5.63;4.70;;;21.30;90.10;;;;;;5031323;28;20033;-32
2022/08/14 07:47:05;;;;;;;4.43;4.03;;;21.60;79.60;;;;;;5029232;28;20026;-34
2022/08/14 07:49:33;;;;;;;4.40;4.00;;;21.90;74.00;;;;;;5031089;28;20056;-34
2022/08/14 07:52:00;;;;;;;6.82;3.38;;;22.10;67.50;;;;;;5030244;28;20043;-35
2022/08/14 07:54:26;;;;;;;5.38;3.53;;;22.30;62.90;;;;;;5030074;28;20061;-34
2022/08/14 07:56:51;;;;;;;4.00;3.60;;;22.40;64.80;;;;;;5023173;28;20053;-34
2022/08/14 07:59:20;;;;;;;3.47;2.95;;;22.60;61.50;;;;;;5037425;28;20116;-33
2022/08/14 08:01:46;;;;;;;3.50;3.20;;;22.60;57.50;;;;;;5021540;28;20041;-34
2022/08/14 08:04:13;;;;;;;3.60;3.30;;;22.70;57.80;;;;;;5038556;28;20043;-33
2022/08/14 08:06:39;;;;;;;3.15;2.95;;;22.90;58.10;;;;;;5033251;28;20041;-33
2022/08/14 08:09:08;;;;;;;3.45;3.05;;;23.10;56.00;;;;;;5034566;28;20598;-33
2022/08/14 08:11:35;;;;;;;3.10;2.90;;;23.30;55.60;;;;;;5031363;28;20033;-32
2022/08/14 08:14:05;;;;;;;3.40;3.10;;;23.30;56.40;;;;;;5026602;28;20044;-36
2022/08/14 08:16:37;;;;;;;3.75;3.30;;;23.40;56.00;;;;;;5031562;28;20038;-35
2022/08/14 08:19:03;;;;;;;4.68;3.05;;;23.70;58.10;;;;;;5029676;28;20033;-36
2022/08/14 08:21:29;;;;;;;4.70;3.00;;;23.70;52.70;;;;;;5032520;28;20080;-33
2022/08/14 08:23:54;;;;;;;5.68;3.10;;;23.80;51.90;;;;;;5033238;28;20063;-33
2022/08/14 08:26:27;;;;;;;3.17;2.97;;;23.80;49.80;;;;;;5035352;28;20017;-33
2022/08/14 08:28:57;;;;;;;4.00;3.17;;;24.00;51.60;;;;;;5029737;28;20029;-37
2022/08/14 08:31:23;;;;;;;4.57;2.80;;;24.10;50.10;;;;;;5022067;28;20585;-33
2022/08/14 08:33:52;;;;;;;3.90;2.95;;;24.30;50.80;;;;;;5031478;28;20071;-38
2022/08/14 08:36:19;;;;;;;3.03;2.70;;;24.50;48.80;;;;;;5027083;28;20083;-33
2022/08/14 08:38:48;;;;;;;2.83;2.63;;;24.50;46.70;;;;;;5030419;28;20414;-34
2022/08/14 08:41:14;;;;;;;3.55;2.60;;;24.50;48.60;;;;;;5032848;28;20030;-34
2022/08/14 08:43:40;;;;;;;2.83;2.63;;;24.60;45.70;;;;;;5035634;28;20543;-36
2022/08/14 08:46:09;;;;;;;3.33;2.45;;;24.70;47.60;;;;;;5027683;28;20105;-34
2022/08/14 08:48:48;;;;;;;3.40;3.10;;;24.90;46.10;;;;;;5029047;28;20144;-33
2022/08/14 08:51:24;;;;;;;2.88;2.70;;;25.00;45.80;;;;;;5023283;28;20087;-33
2022/08/14 08:54:01;;;;;;;2.78;2.55;;;25.10;47.60;;;;;;5029362;28;20404;-36
2022/08/14 08:56:48;;;;;;;2.78;2.58;;;25.20;47.00;;;;;;5022843;28;20040;-32
2022/08/14 08:59:20;;;;;;;;;;;25.30;44.10;;;;;;5028285;28;20136;-36
2022/08/14 09:01:52;;;;;;;3.15;2.55;;;25.30;45.30;;;;;;5021057;28;19917;-33
2022/08/14 09:04:19;;;;;;;2.97;2.78;;;25.30;43.60;;;;;;5026023;28;20036;-35
2022/08/14 09:06:46;;;;;;;2.67;2.47;;;25.40;43.90;;;;;;5029399;28;20036;-34
2022/08/14 09:09:21;;;;;;;;;;;25.60;44.50;;;;;;5026108;28;20033;-34
2022/08/14 09:11:47;;;;;;;2.78;2.58;;;25.80;44.30;;;;;;5025725;28;19917;-35
2022/08/14 09:14:13;;;;;;;4.10;2.95;;;26.10;43.40;;;;;;5022335;28;20100;-33
2022/08/14 09:16:39;;;;;;;2.92;2.70;;;26.00;42.60;;;;;;5022003;28;20048;-33
2022/08/14 09:19:06;;;;;;;2.67;2.47;;;26.00;43.80;;;;;;5025335;28;20037;-35
2022/08/14 09:21:33;;;;;;;2.72;2.50;;;26.10;43.00;;;;;;5024157;28;20041;-32
2022/08/14 09:24:00;;;;;;;2.85;2.65;;;26.20;42.10;;;;;;5023860;28;20143;-34
2022/08/14 09:26:26;;;;;;;2.67;2.47;;;26.50;40.40;;;;;;5027105;28;20533;-32
2022/08/14 09:28:52;;;;;;;3.53;2.80;;;26.50;42.20;;;;;;5026278;28;20029;-34
2022/08/14 09:31:19;;;;;;;6.57;3.00;;;26.60;40.40;;;;;;5026881;28;20033;-36
2022/08/14 09:34:07;;;;;;;3.67;2.70;;;26.50;40.10;;;;;;5031300;28;20148;-32
2022/08/14 09:36:52;;;;;;;3.05;2.85;;;26.60;39.60;;;;;;5033100;28;20272;-36
2022/08/14 09:39:41;;;;;;;4.80;2.97;;;26.60;40.20;;;;;;5027710;28;20029;-35
2022/08/14 09:42:32;;;;;;;3.30;3.00;;;26.60;39.10;;;;;;5030864;28;20029;-32
2022/08/14 09:45:15;;;;;;;3.03;2.83;;;26.60;40.70;;;;;;5018745;28;20430;-36
2022/08/14 09:47:49;;;;;;;3.53;3.00;;;26.60;39.30;;;;;;5024547;28;20155;-33
2022/08/14 09:50:25;;;;;;;2.83;2.63;;;26.60;38.70;;;;;;5028657;28;20613;-31
2022/08/14 09:53:03;;;;;;;3.05;2.85;;;26.70;39.70;;;;;;5020685;28;20029;-33
2022/08/14 09:55:33;;;;;;;3.30;2.97;;;26.90;38.50;;;;;;5023314;28;21639;-31
2022/08/14 09:58:15;;;;;;;3.40;3.10;;;27.00;39.00;;;;;;5029870;28;20425;-31
2022/08/14 10:00:50;;;;;;;2.90;2.70;;;27.00;38.00;;;;;;5025275;28;20025;-36
2022/08/14 10:03:34;;;;;;;3.15;2.95;;;26.90;37.80;;;;;;5031707;28;20034;-31
2022/08/14 10:06:08;;;;;;;2.90;2.70;;;27.10;38.50;;;;;;5028164;28;20028;-36
2022/08/14 10:08:50;;;;;;;3.47;3.17;;;27.40;38.40;;;;;;5027377;28;20033;-32
2022/08/14 10:11:22;;;;;;;4.20;3.20;;;27.30;37.50;;;;;;5026973;28;20033;-31
2022/08/14 10:13:53;;;;;;;3.17;2.80;;;27.20;39.00;;;;;;5027426;28;20057;-31
2022/08/14 10:16:25;;;;;;;3.95;2.78;;;27.40;37.80;;;;;;5030627;28;20025;-34
2022/08/14 10:19:22;;;;;;;3.17;2.88;;;27.50;37.30;;;;;;5030572;28;20032;-33
2022/08/14 10:21:56;;;;;;;4.63;3.08;;;27.50;37.80;;;;;;5020904;28;20135;-32
2022/08/14 10:24:32;;;;;;;3.15;2.95;;;27.30;37.00;;;;;;5033726;28;20029;-32
2022/08/14 10:27:01;;;;;;;3.40;2.97;;;27.40;38.30;;;;;;5037056;28;20030;-31
2022/08/14 10:29:51;;;;;;;3.40;3.10;;;27.50;37.00;;;;;;5037933;28;20390;-32
2022/08/14 10:32:17;;;;;;;5.22;3.20;;;27.50;37.40;;;;;;5024380;28;20037;-32
2022/08/14 10:34:42;;;;;;;3.08;2.88;;;27.70;37.10;;;;;;5034832;28;20075;-33
2022/08/14 10:37:11;;;;;;;3.00;2.80;;;27.70;36.60;;;;;;5032913;28;20025;-32
2022/08/14 10:39:38;;;;;;;3.50;3.20;;;27.70;36.20;;;;;;5034552;28;20509;-33
2022/08/14 10:42:09;;;;;;;3.53;2.83;;;27.50;36.60;;;;;;5036870;28;20020;-32
2022/08/14 10:44:40;;;;;;;3.58;3.28;;;27.50;36.90;;;;;;5034108;28;20683;-36
2022/08/14 10:47:11;;;;;;;3.00;2.80;;;27.50;38.20;;;;;;5036434;28;20108;-32
2022/08/14 10:49:48;;;;;;;3.35;3.05;;;27.50;36.10;;;;;;5035873;28;20038;-31
2022/08/14 10:52:31;;;;;;;3.40;3.10;;;27.70;35.70;;;;;;5037156;28;20172;-31
2022/08/14 10:55:12;;;;;;;3.20;2.90;;;27.80;36.80;;;;;;5034826;28;20048;-31
2022/08/14 10:57:47;;;;;;;7.75;3.30;;;27.80;35.80;;;;;;5035125;28;20037;-31
2022/08/14 11:00:15;;;;;;;2.75;2.55;;;27.80;37.70;;;;;;5030285;28;20352;-31
2022/08/14 11:02:41;;;;;;;3.63;3.05;;;27.90;35.90;;;;;;5027822;28;20026;-34
2022/08/14 11:05:13;;;;;;;3.25;2.70;;;28.00;35.00;;;;;;5035874;28;20040;-32
2022/08/14 11:07:42;;;;;;;3.50;2.80;;;28.00;34.10;;;;;;5031011;28;20040;-33
2022/08/14 11:10:12;;;;;;;3.38;2.90;;;27.90;34.90;;;;;;5030743;28;20033;-31
2022/08/14 11:12:46;;;;;;;3.00;2.80;;;27.90;34.90;;;;;;5049327;28;20033;-34
2022/08/14 11:15:20;;;;;;;3.17;2.88;;;27.80;36.10;;;;;;5033700;28;20024;-33
2022/08/14 11:17:47;;;;;;;3.05;2.85;;;28.00;35.40;;;;;;5030005;28;20032;-33
2022/08/14 11:20:15;;;;;;;4.80;2.78;;;27.90;35.80;;;;;;5051126;28;20043;-31
2022/08/14 11:22:41;;;;;;;3.75;2.90;;;28.00;35.20;;;;;;5032666;28;20052;-31
2022/08/14 11:25:10;;;;;;;2.80;2.60;;;28.10;34.20;;;;;;5034857;28;20048;-31
2022/08/14 11:27:38;;;;;;;4.30;3.03;;;28.00;34.40;;;;;;5029051;28;20038;-35
2022/08/14 11:30:07;;;;;;;2.63;2.42;;;27.90;34.90;;;;;;5031132;28;20032;-34
2022/08/14 11:32:35;;;;;;;4.45;2.70;;;27.90;35.60;;;;;;5031797;28;20051;-31
2022/08/14 11:35:02;;;;;;;2.53;2.40;;;28.00;33.40;;;;;;5029638;28;20029;-32
2022/08/14 11:37:32;;;;;;;3.05;2.80;;;28.00;32.70;;;;;;5031728;28;20045;-32
2022/08/14 11:39:59;;;;;;;3.63;2.70;;;27.90;33.40;;;;;;5033891;28;20083;-35
2022/08/14 11:42:26;;;;;;;2.83;2.63;;;27.80;33.60;;;;;;5034279;28;20036;-32
2022/08/14 11:44:56;;;;;;;2.50;2.30;;;27.80;32.80;;;;;;5039083;28;20044;-32
2022/08/14 11:47:22;;;;;;;3.28;2.63;;;27.80;33.20;;;;;;5033374;28;20033;-31
2022/08/14 11:49:48;;;;;;;3.00;2.17;;;28.10;33.80;;;;;;5035166;28;20877;-32
2022/08/14 11:52:15;;;;;;;2.80;2.60;;;28.00;33.40;;;;;;5034325;28;20082;-32
2022/08/14 11:54:41;;;;;;;3.40;2.72;;;28.00;33.40;;;;;;5035138;28;20021;-34
2022/08/14 11:57:15;;;;;;;3.00;2.80;;;28.20;35.90;;;;;;5035502;28;20296;-34
2022/08/14 11:59:41;;;;;;;3.13;2.80;;;28.30;34.40;;;;;;5027805;28;20112;-32
2022/08/14 12:02:15;;;;;;;2.92;2.72;;;28.40;36.30;;;;;;5032015;28;20175;-32
2022/08/14 12:04:49;;;;;;;2.78;2.58;;;28.50;35.20;;;;;;5025915;28;20032;-32
2022/08/14 12:07:15;;;;;;;3.00;2.80;;;28.40;32.30;;;;;;5031321;28;20029;-36
2022/08/14 12:09:40;;;;;;;2.72;2.50;;;28.40;32.50;;;;;;5034979;28;20048;-33
2022/08/14 12:12:20;;;;;;;3.13;2.60;;;28.40;32.30;;;;;;5033606;28;20390;-33
2022/08/14 12:14:55;;;;;;;2.85;2.55;;;28.40;31.70;;;;;;5039351;28;20092;-33
2022/08/14 12:17:26;;;;;;;2.90;2.58;;;28.30;31.10;;;;;;5025953;28;20032;-31
2022/08/14 12:20:04;;;;;;;2.95;2.50;;;28.30;30.90;;;;;;5029906;28;20247;-31
2022/08/14 12:22:42;;;;;;;5.05;2.40;;;28.20;31.60;;;;;;5028192;28;20433;-34
2022/08/14 12:25:18;;;;;;;3.17;2.60;;;28.40;33.30;;;;;;5037775;28;20036;-32
2022/08/14 12:27:50;;;;;;;4.53;2.20;;;28.40;32.10;;;;;;5026745;28;20576;-34
2022/08/14 12:30:34;;;;;;;1.90;1.80;;;28.50;31.50;;;;;;5033831;28;20106;-32
2022/08/14 12:33:02;;;;;;;2.40;2.08;;;28.50;29.20;;;;;;5033315;28;20036;-34
2022/08/14 12:35:38;;;;;;;2.50;2.30;;;28.40;29.40;;;;;;5033698;28;20458;-32
2022/08/14 12:38:04;;;;;;;3.00;2.40;;;28.30;28.80;;;;;;5031293;28;20116;-34
2022/08/14 12:40:30;;;;;;;3.22;2.20;;;28.30;29.20;;;;;;5028404;28;20464;-32
2022/08/14 12:43:03;;;;;;;2.35;2.22;;;28.40;28.40;;;;;;5031018;28;20795;-31
2022/08/14 12:45:32;;;;;;;2.05;1.90;;;28.40;28.90;;;;;;5026170;28;20033;-32
2022/08/14 12:48:03;;;;;;;2.50;2.30;;;28.30;28.40;;;;;;5026866;28;20033;-34
2022/08/14 12:50:40;;;;;;;2.38;2.17;;;28.40;29.60;;;;;;5025995;28;20060;-31
2022/08/14 12:53:08;;;;;;;2.03;1.92;;;28.50;29.10;;;;;;5029769;28;20519;-31
2022/08/14 12:55:38;;;;;;;2.88;2.10;;;28.60;28.60;;;;;;5029832;28;20163;-33
2022/08/14 12:58:04;;;;;;;2.30;2.17;;;28.50;29.20;;;;;;5037601;28;20035;-33
2022/08/14 13:00:33;;;;;;;2.50;2.30;;;28.50;28.70;;;;;;5036134;28;20045;-32
2022/08/14 13:02:59;;;;;;;2.45;2.25;;;28.50;30.00;;;;;;5028436;28;20028;-32
2022/08/14 13:05:30;;;;;;;2.42;2.22;;;28.50;29.00;;;;;;5032309;28;20025;-31
2022/08/14 13:07:57;;;;;;;2.15;2.05;;;28.50;29.30;;;;;;5032723;28;20100;-34
2022/08/14 13:10:23;;;;;;;2.47;2.28;;;28.50;29.30;;;;;;5035144;28;20041;-32